Delray Beach, FL

9:09 PM EDT on September 02, 2014 (GMT -0400)
Fort Lauderdale Executive | Change Station
CLOSE
Current Station
Airport
Location: Fort Lauderdale,
Elevation: 13 ft
Nearby Weather Stations

Elev 13 ft 26.20 °N, 80.18 °W | Updated 16 minutes ago

Light Rain
Light Rain
81 °F
Feels Like 87 °F
N
7
Wind Variable Wind from SSW

Today
High -- | Low -- °F
--% Chance of Precip.
Yesterday
High -- | Low -- °F
Precip. -- in
7:00 AM 7:38 PM
First Quarter, 57% visible
Pressure 30.03 in
Visibility 7.0 miles
Clouds Scattered Clouds 2600 ft
Scattered Clouds 6000 ft
Heat Index 87 °F
Dew Point 76 °F
Humidity 85%
Rainfall 0.02 in
Snow Depth Not available.
UV 0 out of 12
Pollen 5.30 out of 12
PM2.5 Good
Flu Activity Not available.
METAR KFXE 030053Z 21006KT 7SM -RA SCT026 SCT060 27/24 A3002 RMK AO2 RAB42 SLP168 P0002 T02720244

More Conditions Fewer Conditions

Pressure 30.03 in
Visibility 7.0 miles
Clouds Scattered Clouds 2600 ft
Scattered Clouds 6000 ft
Heat Index 87 °F
Dew Point 76 °F
Humidity 85%
Rainfall 0.02 in
Snow Depth Not available.
UV 0 out of 12
Pollen 5.30 out of 12
PM2.5 Good
Flu Activity Not available.
METAR KFXE 030053Z 21006KT 7SM -RA SCT026 SCT060 27/24 A3002 RMK AO2 RAB42 SLP168 P0002 T02720244

More Conditions Fewer Conditions

10-Day Weather Forecast

Almanac

Astronomy

Sep. 02, 2014 Rise Set
Actual Time 7:00 AM EDT 7:38 PM EDT
Civil Twilight 6:37 AM EDT 8:02 PM EDT
Nautical Twilight 6:09 AM EDT 8:29 PM EDT
Astronomical Twilight 5:41 AM EDT 8:57 PM EDT
Moon 2:03 PM EDT (9/2) 12:18 AM EDT (9/2)
Length of Visible Light 13h 25m
Length of Day
12h 38m
Tomorrow will be 1m 30s shorter.
First Quarter, 57% of the Moon is Illuminated
Today
First Quarter
Sep 8
Full
Sep 15
Last Quarter
Sep 24
New
Oct 1
First Quarter

Today's Extremes

State Highs State Lows

Community

WunderPhotos

Upload Photos

1,749,826 photos uploaded!

Nearby

Air Quality

  Air Quality AQ Index Pollutant
Yesterday Moderate
PM2.5
Yesterday Good
OZONE
Current Good
PM2.5
Tuesday Good
OZONE
Tuesday Good
PM2.5
Wednesday Good
OZONE
Wednesday Good
PM2.5
Thursday Good
OZONE
Thursday Good
PM2.5

Snow Depth

Station Depth Elevation
No new snow has been reported.

Earthquake Activity

City Distance Mag. Time & Date
No recent earthquake activity has been reported nearby.
Minimum magnitude displayed is 2.5.

Coastal Water Temperatures

Place Temperature
Lake Worth, FL 87.1 °F
Virginia Key, FL 88.0 °F

Nearby Weather Stations